Time;durP1;ratioP1;P1;durP2;ratioP2;P2;SDS_P1;SDS_P2;PMS_P1;PMS_P2;Temp;Humidity;BMP_temperature;BMP_pressure;BME280_temperature;BME280_humidity;BME280_pressure;Samples;Min_cycle;Max_cycle;Signal;HPM_P1;HPM_P2
2023/07/19 00:00:10;;;;;;;3.03;1.17;;;20.30;99.90;;;;;;4172577;28;20112;-64
2023/07/19 00:02:10;;;;;;;3.15;1.65;;;20.20;99.80;;;;;;4176257;28;20508;-59
2023/07/19 00:04:11;;;;;;;2.28;1.42;;;20.10;99.40;;;;;;4177565;28;20052;-59
2023/07/19 00:06:11;;;;;;;2.65;1.63;;;20.10;99.90;;;;;;4173709;28;20433;-59
2023/07/19 00:08:12;;;;;;;3.72;1.20;;;20.00;99.90;;;;;;4173009;28;20057;-59
2023/07/19 00:10:13;;;;;;;2.00;1.35;;;19.90;99.90;;;;;;4168526;28;20085;-59
2023/07/19 00:12:13;;;;;;;2.20;1.15;;;19.80;99.90;;;;;;4176930;28;20029;-59
2023/07/19 00:14:14;;;;;;;3.92;1.40;;;19.80;99.90;;;;;;4176308;28;20032;-59
2023/07/19 00:16:14;;;;;;;2.80;1.42;;;19.80;99.90;;;;;;4171055;28;20029;-63
2023/07/19 00:18:15;;;;;;;1.70;1.20;;;19.70;99.90;;;;;;4156002;28;20075;-60
2023/07/19 00:20:16;;;;;;;2.42;1.58;;;19.70;99.90;;;;;;4157278;28;20116;-60
2023/07/19 00:22:16;;;;;;;1.65;1.40;;;19.80;99.90;;;;;;4154014;28;20053;-59
2023/07/19 00:24:17;;;;;;;2.40;1.55;;;19.70;99.90;;;;;;4171885;28;20028;-59
2023/07/19 00:26:18;;;;;;;2.15;1.45;;;19.70;99.90;;;;;;4173199;28;20025;-59
2023/07/19 00:28:18;;;;;;;2.72;1.50;;;19.70;99.90;;;;;;4174977;28;20025;-60
2023/07/19 00:30:20;;;;;;;1.83;1.52;;;19.70;99.90;;;;;;4148103;28;20031;-59
2023/07/19 00:32:20;;;;;;;2.95;1.77;;;19.70;99.90;;;;;;4170739;28;20400;-59
2023/07/19 00:34:21;;;;;;;1.50;1.20;;;19.60;99.90;;;;;;4170136;28;20028;-59
2023/07/19 00:36:21;;;;;;;2.15;1.45;;;19.60;99.90;;;;;;4158476;28;20025;-62
2023/07/19 00:38:22;;;;;;;4.72;1.67;;;19.60;99.90;;;;;;4156916;28;20029;-60
2023/07/19 00:40:23;;;;;;;1.58;1.20;;;19.60;99.90;;;;;;4149767;28;20034;-60
2023/07/19 00:42:23;;;;;;;3.05;1.52;;;19.50;99.90;;;;;;4151017;28;20057;-59
2023/07/19 00:44:24;;;;;;;5.28;1.50;;;19.40;99.90;;;;;;4167659;28;20530;-60
2023/07/19 00:46:26;;;;;;;2.33;1.50;;;19.40;99.90;;;;;;4171833;28;20060;-59
2023/07/19 00:48:27;;;;;;;1.83;1.37;;;19.30;99.90;;;;;;4155175;28;20030;-59
2023/07/19 00:50:27;;;;;;;1.73;1.30;;;19.30;99.90;;;;;;4173044;28;20039;-59
2023/07/19 00:52:28;;;;;;;2.38;1.50;;;19.30;99.90;;;;;;4171589;28;20708;-59
2023/07/19 00:54:30;;;;;;;2.75;1.55;;;19.30;99.90;;;;;;4175763;28;20033;-59
2023/07/19 00:56:32;;;;;;;1.73;1.30;;;19.30;99.90;;;;;;4172938;28;20037;-59
2023/07/19 00:58:33;;;;;;;2.25;1.58;;;19.30;99.90;;;;;;4172179;28;20647;-59
2023/07/19 01:00:33;;;;;;;1.45;1.30;;;19.30;99.90;;;;;;4161004;28;20067;-59
2023/07/19 01:02:34;;;;;;;2.70;1.58;;;19.30;99.90;;;;;;4177220;28;20033;-59
2023/07/19 01:04:35;;;;;;;1.70;1.10;;;19.30;99.90;;;;;;4173769;28;20052;-59
2023/07/19 01:06:35;;;;;;;2.72;1.50;;;19.30;99.90;;;;;;4167791;28;20041;-58
2023/07/19 01:08:36;;;;;;;2.58;1.35;;;19.30;99.90;;;;;;4162106;28;20029;-59
2023/07/19 01:10:37;;;;;;;3.03;1.67;;;19.30;99.90;;;;;;4168008;28;20040;-59
2023/07/19 01:12:37;;;;;;;3.08;1.38;;;19.30;99.90;;;;;;4176335;28;20036;-59
2023/07/19 01:14:38;;;;;;;2.03;1.55;;;19.30;99.90;;;;;;4175226;28;20063;-59
2023/07/19 01:16:38;;;;;;;2.90;1.77;;;19.10;99.90;;;;;;4172372;28;20039;-59
2023/07/19 01:18:39;;;;;;;2.00;1.48;;;19.20;99.90;;;;;;4171843;28;20029;-59
2023/07/19 01:20:40;;;;;;;2.75;1.67;;;19.10;99.90;;;;;;4171194;28;20029;-59
2023/07/19 01:22:42;;;;;;;3.10;1.50;;;19.10;99.90;;;;;;4175988;28;20033;-59
2023/07/19 01:24:42;;;;;;;3.38;1.33;;;19.10;99.90;;;;;;4173192;28;20048;-60
2023/07/19 01:26:43;;;;;;;1.63;1.23;;;19.00;99.90;;;;;;4173907;28;20059;-59
2023/07/19 01:28:43;;;;;;;1.92;1.30;;;19.00;99.90;;;;;;4172788;28;20033;-59
2023/07/19 01:30:44;;;;;;;2.33;1.35;;;19.00;99.90;;;;;;4165722;28;20033;-59
2023/07/19 01:32:44;;;;;;;1.95;1.38;;;19.00;99.90;;;;;;4173268;28;20033;-59
2023/07/19 01:34:45;;;;;;;4.28;1.50;;;19.00;99.90;;;;;;4165803;28;20025;-61
2023/07/19 01:36:46;;;;;;;3.83;1.80;;;19.00;99.90;;;;;;4172595;28;20495;-59
2023/07/19 01:38:46;;;;;;;2.85;1.50;;;19.00;99.90;;;;;;4164687;28;20040;-60
2023/07/19 01:40:47;;;;;;;2.72;1.20;;;19.00;99.90;;;;;;4174173;28;20032;-59
2023/07/19 01:42:47;;;;;;;2.10;1.38;;;18.90;99.90;;;;;;4174515;28;20033;-59
2023/07/19 01:44:48;;;;;;;3.72;1.23;;;19.00;99.90;;;;;;4171323;28;20119;-59
2023/07/19 01:46:48;;;;;;;1.88;1.25;;;18.90;99.90;;;;;;4167089;28;20031;-59
2023/07/19 01:48:49;;;;;;;2.88;1.50;;;18.90;99.90;;;;;;4170310;28;20048;-59
2023/07/19 01:50:50;;;;;;;1.85;1.27;;;18.90;99.90;;;;;;4174428;28;20033;-59
2023/07/19 01:52:50;;;;;;;2.97;1.52;;;18.90;99.90;;;;;;4168103;28;20037;-59
2023/07/19 01:54:51;;;;;;;3.20;1.60;;;18.90;99.90;;;;;;4172691;28;20039;-59
2023/07/19 01:56:51;;;;;;;2.63;1.73;;;18.90;99.90;;;;;;4169750;28;20042;-59
2023/07/19 01:58:52;;;;;;;1.65;1.08;;;18.90;99.90;;;;;;4155955;28;20037;-59
2023/07/19 02:00:53;;;;;;;2.38;1.52;;;18.90;99.90;;;;;;4168617;28;20032;-59
2023/07/19 02:02:54;;;;;;;5.32;1.60;;;18.90;99.90;;;;;;4173843;28;20029;-62
2023/07/19 02:04:55;;;;;;;3.17;1.70;;;18.80;99.90;;;;;;4170390;28;20048;-60
2023/07/19 02:06:55;;;;;;;2.33;1.35;;;18.70;99.90;;;;;;4175015;28;20040;-60
2023/07/19 02:08:56;;;;;;;3.17;1.67;;;18.70;99.90;;;;;;4167225;28;20035;-59
2023/07/19 02:10:57;;;;;;;1.63;1.35;;;18.70;99.90;;;;;;4173367;28;20353;-59
2023/07/19 02:12:57;;;;;;;1.80;1.40;;;18.70;99.90;;;;;;4146807;28;20038;-59
2023/07/19 02:14:58;;;;;;;2.58;1.65;;;18.60;99.90;;;;;;4167832;28;20052;-59
2023/07/19 02:16:58;;;;;;;2.83;1.70;;;18.60;99.90;;;;;;4171365;28;20045;-59
2023/07/19 02:18:59;;;;;;;1.95;1.48;;;18.60;99.90;;;;;;4169365;28;20048;-60
2023/07/19 02:21:00;;;;;;;1.58;1.40;;;18.60;99.90;;;;;;4172635;28;20041;-59
2023/07/19 02:23:00;;;;;;;1.73;1.33;;;18.60;99.90;;;;;;4175099;28;20459;-59
2023/07/19 02:25:01;;;;;;;3.75;1.48;;;18.50;99.90;;;;;;4170788;28;20053;-60
2023/07/19 02:27:01;;;;;;;2.97;1.70;;;18.60;99.90;;;;;;4172158;28;20103;-59
2023/07/19 02:29:02;;;;;;;1.75;1.20;;;18.60;99.90;;;;;;4172520;28;20055;-59
2023/07/19 02:31:03;;;;;;;2.25;1.60;;;18.60;99.90;;;;;;4172283;28;20527;-59
2023/07/19 02:33:03;;;;;;;2.22;1.50;;;18.60;99.90;;;;;;4165726;28;20217;-58
2023/07/19 02:35:04;;;;;;;2.22;1.67;;;18.60;99.90;;;;;;4171939;28;20469;-62
2023/07/19 02:37:05;;;;;;;1.75;1.30;;;18.60;99.90;;;;;;4174829;28;20476;-59
2023/07/19 02:39:06;;;;;;;2.75;1.80;;;18.60;99.90;;;;;;4171505;28;20041;-59
2023/07/19 02:41:07;;;;;;;1.83;1.40;;;18.60;99.90;;;;;;4174389;28;20040;-59
2023/07/19 02:43:08;;;;;;;2.15;1.50;;;18.50;99.90;;;;;;4176485;28;20033;-60
2023/07/19 02:45:09;;;;;;;4.28;1.90;;;18.40;99.90;;;;;;4171227;28;20057;-60
2023/07/19 02:47:12;;;;;;;2.70;1.67;;;18.30;99.90;;;;;;4150402;28;20052;-59
2023/07/19 02:49:13;;;;;;;2.65;1.40;;;18.30;99.90;;;;;;4154580;28;20033;-59
2023/07/19 02:51:13;;;;;;;3.63;1.90;;;18.30;99.90;;;;;;4154288;28;20037;-59
2023/07/19 02:53:15;;;;;;;2.85;1.83;;;18.30;99.90;;;;;;4171489;28;20046;-59
2023/07/19 02:55:15;;;;;;;2.53;1.65;;;18.30;99.90;;;;;;4165379;28;20516;-63
2023/07/19 02:57:16;;;;;;;2.17;1.70;;;18.30;99.90;;;;;;4175230;28;20040;-60
2023/07/19 02:59:16;;;;;;;4.95;1.85;;;18.30;99.90;;;;;;4169051;28;20108;-59
2023/07/19 03:01:17;;;;;;;2.78;1.80;;;18.30;99.90;;;;;;4173640;28;20040;-59
2023/07/19 03:03:17;;;;;;;2.97;1.70;;;18.30;99.90;;;;;;4175229;28;20029;-60
2023/07/19 03:05:18;;;;;;;4.35;1.83;;;18.40;99.90;;;;;;4174842;28;20442;-59
2023/07/19 03:07:18;;;;;;;2.60;1.58;;;18.30;99.90;;;;;;4177535;28;20040;-59
2023/07/19 03:09:19;;;;;;;2.55;1.75;;;18.30;99.90;;;;;;4171734;28;20083;-59
2023/07/19 03:11:20;;;;;;;3.03;1.73;;;18.30;99.90;;;;;;4169635;28;20033;-59
2023/07/19 03:13:21;;;;;;;2.88;2.05;;;18.30;99.90;;;;;;4174767;28;20377;-59
2023/07/19 03:15:21;;;;;;;2.78;1.77;;;18.30;99.90;;;;;;4173427;28;20051;-59
2023/07/19 03:17:22;;;;;;;2.28;1.75;;;18.30;99.90;;;;;;4174608;28;20376;-60
2023/07/19 03:19:24;;;;;;;2.90;1.95;;;18.30;99.90;;;;;;4173474;28;21440;-59
2023/07/19 03:21:24;;;;;;;3.67;1.88;;;18.30;99.90;;;;;;4158180;28;20026;-59
2023/07/19 03:23:26;;;;;;;4.13;1.80;;;18.30;99.90;;;;;;4177680;28;20029;-59
2023/07/19 03:25:28;;;;;;;3.05;2.13;;;18.30;99.90;;;;;;4157230;28;20036;-59
2023/07/19 03:27:30;;;;;;;2.05;1.80;;;18.30;99.90;;;;;;4155595;28;20196;-59
2023/07/19 03:29:30;;;;;;;3.45;2.20;;;18.30;99.90;;;;;;4157679;28;20042;-60
2023/07/19 03:31:31;;;;;;;2.75;1.98;;;18.30;99.90;;;;;;4153281;28;20033;-59
2023/07/19 03:33:31;;;;;;;2.53;2.00;;;18.30;99.90;;;;;;4173404;28;20041;-59
2023/07/19 03:35:32;;;;;;;2.90;1.60;;;18.30;99.90;;;;;;4166643;28;20071;-59
2023/07/19 03:37:34;;;;;;;2.65;1.75;;;18.30;99.90;;;;;;4162221;28;20533;-60
2023/07/19 03:39:35;;;;;;;3.75;2.15;;;18.30;99.90;;;;;;4177967;28;20033;-59
2023/07/19 03:41:35;;;;;;;2.50;1.70;;;18.30;99.90;;;;;;4170525;28;20048;-59
2023/07/19 03:43:36;;;;;;;2.25;1.50;;;18.30;99.90;;;;;;4154612;28;20038;-59
2023/07/19 03:45:38;;;;;;;3.00;1.92;;;18.20;99.90;;;;;;4155853;28;20041;-59
2023/07/19 03:47:39;;;;;;;2.43;1.90;;;18.10;99.90;;;;;;4150514;28;20033;-59
2023/07/19 03:49:40;;;;;;;3.40;1.70;;;18.10;99.90;;;;;;4154282;28;20322;-59
2023/07/19 03:51:40;;;;;;;3.15;1.45;;;18.10;99.90;;;;;;4151238;28;20029;-59
2023/07/19 03:53:41;;;;;;;3.28;1.90;;;18.10;99.90;;;;;;4149216;28;20381;-59
2023/07/19 03:55:41;;;;;;;4.45;1.92;;;18.00;99.90;;;;;;4149617;28;20030;-59
2023/07/19 03:57:42;;;;;;;1.98;1.70;;;18.00;99.90;;;;;;4151315;28;20146;-59
2023/07/19 03:59:42;;;;;;;3.67;1.80;;;18.00;99.90;;;;;;4159376;28;20034;-59
2023/07/19 04:01:43;;;;;;;2.72;1.95;;;18.00;99.90;;;;;;4152409;28;20034;-59
2023/07/19 04:03:44;;;;;;;2.05;1.55;;;18.00;99.90;;;;;;4129326;28;20026;-59
2023/07/19 04:05:45;;;;;;;2.85;1.77;;;18.00;99.90;;;;;;4133349;28;20061;-59
2023/07/19 04:07:45;;;;;;;4.53;2.25;;;18.10;99.90;;;;;;4144588;28;20058;-65
2023/07/19 04:09:46;;;;;;;3.70;2.05;;;18.10;99.90;;;;;;4157404;28;20052;-61
2023/07/19 04:11:47;;;;;;;3.05;1.65;;;18.00;99.90;;;;;;4152771;28;20120;-59
2023/07/19 04:13:47;;;;;;;3.20;1.98;;;18.10;99.90;;;;;;4152188;28;20045;-60
2023/07/19 04:15:48;;;;;;;3.30;1.92;;;18.10;99.90;;;;;;4142258;28;20507;-58
2023/07/19 04:17:48;;;;;;;5.47;1.98;;;18.10;99.90;;;;;;4146040;28;20136;-59
2023/07/19 04:19:49;;;;;;;1.88;1.67;;;18.10;99.90;;;;;;4148931;28;20041;-59
2023/07/19 04:21:49;;;;;;;3.28;1.67;;;18.10;99.90;;;;;;4151893;28;20044;-59
2023/07/19 04:23:50;;;;;;;4.70;2.03;;;18.20;99.90;;;;;;4149386;28;20060;-59
2023/07/19 04:25:51;;;;;;;3.08;2.10;;;18.20;99.90;;;;;;4140291;28;20500;-59
2023/07/19 04:27:51;;;;;;;3.13;2.10;;;18.20;99.90;;;;;;4143693;28;20179;-58
2023/07/19 04:29:52;;;;;;;3.75;2.63;;;18.30;99.90;;;;;;4159084;28;20997;-59
2023/07/19 04:31:52;;;;;;;3.15;2.28;;;18.30;99.90;;;;;;4155407;28;20037;-59
2023/07/19 04:33:53;;;;;;;6.68;2.42;;;18.30;99.90;;;;;;4152128;28;20092;-59
2023/07/19 04:35:54;;;;;;;2.85;2.50;;;18.30;99.90;;;;;;4153398;28;20033;-59
2023/07/19 04:37:54;;;;;;;4.57;2.17;;;18.40;99.90;;;;;;4156341;28;20030;-59
2023/07/19 04:39:55;;;;;;;2.53;1.88;;;18.40;99.90;;;;;;4159733;28;20034;-59
2023/07/19 04:41:56;;;;;;;3.20;2.17;;;18.40;99.90;;;;;;4158120;28;20040;-58
2023/07/19 04:43:56;;;;;;;9.48;2.60;;;18.50;99.90;;;;;;4162118;28;20046;-59
2023/07/19 04:45:57;;;;;;;4.82;2.72;;;18.50;99.90;;;;;;4171542;28;20032;-59
2023/07/19 04:47:57;;;;;;;3.70;2.55;;;18.60;99.90;;;;;;4171504;28;20120;-59
2023/07/19 04:49:58;;;;;;;3.85;2.50;;;18.60;99.90;;;;;;4176218;28;20040;-59
2023/07/19 04:51:59;;;;;;;4.32;2.78;;;18.70;99.90;;;;;;4174324;28;20040;-59
2023/07/19 04:53:59;;;;;;;6.20;3.00;;;18.70;99.90;;;;;;4168495;28;20044;-64
2023/07/19 04:56:00;;;;;;;5.25;2.78;;;18.70;99.90;;;;;;4165751;28;20049;-61
2023/07/19 04:58:00;;;;;;;3.92;2.42;;;18.70;99.90;;;;;;4165213;28;20063;-59
2023/07/19 05:00:04;;;;;;;3.45;2.72;;;18.70;99.90;;;;;;4169425;28;20029;-59
2023/07/19 05:02:05;;;;;;;4.45;2.58;;;18.80;99.90;;;;;;4173388;28;20048;-59
2023/07/19 05:04:06;;;;;;;3.50;2.35;;;18.80;99.90;;;;;;4176574;28;20036;-59
2023/07/19 05:06:06;;;;;;;3.53;2.67;;;18.80;99.90;;;;;;4170006;28;20041;-59
2023/07/19 05:08:07;;;;;;;3.97;2.65;;;18.80;99.90;;;;;;4168330;28;20036;-59
2023/07/19 05:10:08;;;;;;;5.38;3.13;;;18.90;99.90;;;;;;4174380;28;20029;-60
2023/07/19 05:12:10;;;;;;;4.10;3.03;;;18.90;99.90;;;;;;4172110;28;20354;-59
2023/07/19 05:14:10;;;;;;;3.83;2.88;;;18.90;99.90;;;;;;4174224;28;20037;-59
2023/07/19 05:16:11;;;;;;;4.35;2.58;;;18.90;99.90;;;;;;4169346;28;20040;-59
2023/07/19 05:18:11;;;;;;;3.35;2.55;;;19.00;99.90;;;;;;4171552;28;20055;-59
2023/07/19 05:20:12;;;;;;;5.25;3.08;;;19.00;99.90;;;;;;4172873;28;20040;-59
2023/07/19 05:22:12;;;;;;;5.78;2.95;;;19.00;99.90;;;;;;4165598;28;20044;-59
2023/07/19 05:24:13;;;;;;;4.85;3.00;;;19.10;99.90;;;;;;4168192;28;20037;-59
2023/07/19 05:26:14;;;;;;;3.65;2.85;;;19.10;99.90;;;;;;4163583;28;20422;-59
2023/07/19 05:28:14;;;;;;;5.60;2.58;;;19.10;99.90;;;;;;4172676;28;20067;-59
2023/07/19 05:30:15;;;;;;;7.25;3.00;;;19.10;99.90;;;;;;4174552;28;20026;-59
2023/07/19 05:32:16;;;;;;;5.28;3.28;;;19.10;99.90;;;;;;4173552;28;20037;-59
2023/07/19 05:34:16;;;;;;;5.72;3.15;;;19.20;99.90;;;;;;4171368;28;20124;-60
2023/07/19 05:36:17;;;;;;;4.32;3.00;;;19.20;99.90;;;;;;4173771;28;20033;-60
2023/07/19 05:38:17;;;;;;;3.92;2.47;;;19.20;99.90;;;;;;4173029;28;20047;-59
2023/07/19 05:40:18;;;;;;;3.47;2.15;;;19.20;99.90;;;;;;4166585;28;20033;-60
2023/07/19 05:42:19;;;;;;;5.65;2.50;;;19.20;99.90;;;;;;4165301;28;20488;-59
2023/07/19 05:44:19;;;;;;;5.13;2.90;;;19.30;99.90;;;;;;4171657;28;20045;-59
2023/07/19 05:46:20;;;;;;;5.63;2.67;;;19.30;99.90;;;;;;4163787;28;20120;-59
2023/07/19 05:48:21;;;;;;;3.50;2.40;;;19.30;99.90;;;;;;4172002;28;20463;-59
2023/07/19 05:50:21;;;;;;;4.65;2.67;;;19.40;99.90;;;;;;4163268;28;20444;-59
2023/07/19 05:52:22;;;;;;;4.88;2.85;;;19.40;99.90;;;;;;4176112;28;20098;-59
2023/07/19 05:54:22;;;;;;;3.72;2.65;;;19.50;99.90;;;;;;4172839;28;20049;-59
2023/07/19 05:56:23;;;;;;;3.63;2.80;;;19.40;99.90;;;;;;4164213;28;20045;-59
2023/07/19 05:58:24;;;;;;;3.30;2.13;;;19.50;99.90;;;;;;4145455;28;20527;-59
2023/07/19 06:00:28;;;;;;;4.95;2.70;;;19.50;99.90;;;;;;4170250;28;20044;-59
2023/07/19 06:02:28;;;;;;;3.13;2.20;;;19.50;99.90;;;;;;4168675;28;20053;-59
2023/07/19 06:04:29;;;;;;;3.60;2.53;;;19.60;99.90;;;;;;4175671;28;20100;-59
2023/07/19 06:06:30;;;;;;;6.68;2.70;;;19.60;99.90;;;;;;4168170;28;20037;-59
2023/07/19 06:08:30;;;;;;;5.15;3.08;;;19.60;99.90;;;;;;4172801;28;20036;-59
2023/07/19 06:10:31;;;;;;;5.40;2.50;;;19.70;99.90;;;;;;4170540;28;20112;-59
2023/07/19 06:12:31;;;;;;;3.65;2.33;;;19.70;99.90;;;;;;4175132;28;20032;-59
2023/07/19 06:14:32;;;;;;;7.97;2.85;;;19.70;99.90;;;;;;4168428;28;20557;-59
2023/07/19 06:16:33;;;;;;;4.25;2.55;;;19.70;99.90;;;;;;4172177;28;20021;-60
2023/07/19 06:18:33;;;;;;;5.35;3.13;;;19.70;99.90;;;;;;4154761;28;20033;-64
2023/07/19 06:20:34;;;;;;;4.30;2.90;;;19.70;99.90;;;;;;4167634;28;20026;-61
2023/07/19 06:22:35;;;;;;;3.75;2.70;;;19.70;99.90;;;;;;4175136;28;20022;-60
2023/07/19 06:24:35;;;;;;;3.35;2.65;;;19.70;99.90;;;;;;4173912;28;20056;-60
2023/07/19 06:26:36;;;;;;;4.20;2.83;;;19.80;99.90;;;;;;4167254;28;21339;-59
2023/07/19 06:28:37;;;;;;;3.60;2.40;;;19.80;99.90;;;;;;4156301;28;20045;-61
2023/07/19 06:30:38;;;;;;;4.93;2.70;;;19.80;99.90;;;;;;4170591;28;20038;-61
2023/07/19 06:32:39;;;;;;;5.28;2.83;;;19.80;99.90;;;;;;4169348;28;20472;-61
2023/07/19 06:34:39;;;;;;;5.22;2.97;;;19.80;99.90;;;;;;4174219;28;20033;-61
2023/07/19 06:36:40;;;;;;;4.70;2.75;;;19.80;99.90;;;;;;4171680;28;20036;-61
2023/07/19 06:38:40;;;;;;;7.43;2.70;;;19.80;99.90;;;;;;4172500;28;20029;-61
2023/07/19 06:40:41;;;;;;;4.95;2.70;;;19.90;99.90;;;;;;4177651;28;20546;-61
2023/07/19 06:42:44;;;;;;;4.43;2.70;;;19.90;99.90;;;;;;4168828;28;20464;-61
2023/07/19 06:44:45;;;;;;;3.08;2.13;;;19.90;99.90;;;;;;4155328;28;20041;-61
2023/07/19 06:46:46;;;;;;;5.05;2.55;;;19.90;99.90;;;;;;4152804;28;20036;-61
2023/07/19 06:48:46;;;;;;;10.52;3.63;;;20.00;99.90;;;;;;4152176;28;20040;-61
2023/07/19 06:50:47;;;;;;;4.30;3.10;;;20.00;99.90;;;;;;4164621;28;20428;-63
2023/07/19 06:52:47;;;;;;;5.93;2.80;;;20.00;99.90;;;;;;4173911;28;20051;-63
2023/07/19 06:54:48;;;;;;;5.32;3.00;;;20.00;99.90;;;;;;4175131;28;20524;-62
2023/07/19 06:56:48;;;;;;;3.83;2.40;;;20.10;99.90;;;;;;4178304;28;20039;-61
2023/07/19 06:58:49;;;;;;;2.78;2.22;;;20.00;99.90;;;;;;4168021;28;20421;-62
2023/07/19 07:00:53;;;;;;;3.70;2.55;;;20.10;99.90;;;;;;4173545;28;20029;-62
2023/07/19 07:02:53;;;;;;;5.57;2.38;;;20.10;99.90;;;;;;4153810;28;20025;-62
2023/07/19 07:04:54;;;;;;;3.70;2.33;;;20.10;99.90;;;;;;4160127;28;20041;-62
2023/07/19 07:06:55;;;;;;;4.75;2.78;;;20.10;99.90;;;;;;4156074;28;22451;-61
2023/07/19 07:08:55;;;;;;;5.38;2.65;;;20.20;99.90;;;;;;4155674;28;20048;-61
2023/07/19 07:10:58;;;;;;;3.65;2.28;;;20.20;99.90;;;;;;4149899;28;20473;-62
2023/07/19 07:12:59;;;;;;;4.85;2.83;;;20.20;99.90;;;;;;4151304;28;20042;-61
2023/07/19 07:14:59;;;;;;;3.75;2.72;;;20.30;99.90;;;;;;4153501;28;20045;-62
2023/07/19 07:17:00;;;;;;;4.70;3.03;;;20.30;99.90;;;;;;4149690;28;20034;-62
2023/07/19 07:19:00;;;;;;;5.03;2.80;;;20.30;99.90;;;;;;4153643;28;20029;-61
2023/07/19 07:21:01;;;;;;;4.80;3.28;;;20.40;99.90;;;;;;4151036;28;20421;-62
2023/07/19 07:23:02;;;;;;;4.63;2.97;;;20.30;99.90;;;;;;4140472;28;20424;-62
2023/07/19 07:25:03;;;;;;;6.03;3.15;;;20.40;99.90;;;;;;4155931;28;20126;-63
2023/07/19 07:27:05;;;;;;;5.32;2.83;;;20.40;99.90;;;;;;4154771;28;20436;-62
2023/07/19 07:29:06;;;;;;;5.70;3.33;;;20.40;99.90;;;;;;4152373;28;20065;-61
2023/07/19 07:31:08;;;;;;;6.88;3.13;;;20.40;99.90;;;;;;4155031;28;20033;-62
2023/07/19 07:33:09;;;;;;;5.00;2.90;;;20.50;99.90;;;;;;4154132;28;20042;-62
2023/07/19 07:35:10;;;;;;;5.40;3.15;;;20.50;99.90;;;;;;4157716;28;20033;-63
2023/07/19 07:37:10;;;;;;;4.82;3.55;;;20.60;99.90;;;;;;4152152;28;20124;-61
2023/07/19 07:39:11;;;;;;;4.82;3.10;;;20.80;99.90;;;;;;4151689;28;20030;-62
2023/07/19 07:41:12;;;;;;;4.97;3.10;;;20.80;99.90;;;;;;4151873;28;20040;-62
2023/07/19 07:43:12;;;;;;;5.18;3.40;;;20.80;99.90;;;;;;4155083;28;20034;-62
2023/07/19 07:45:13;;;;;;;5.90;3.25;;;20.90;99.90;;;;;;4168967;28;20365;-62
2023/07/19 07:47:14;;;;;;;8.18;3.75;;;21.00;99.90;;;;;;4173240;28;20024;-62
2023/07/19 07:49:15;;;;;;;6.47;3.53;;;21.00;99.90;;;;;;4171566;28;20037;-62
2023/07/19 07:51:16;;;;;;;6.65;3.08;;;21.10;99.90;;;;;;4170056;28;20033;-62
2023/07/19 07:53:17;;;;;;;4.85;3.03;;;21.20;99.90;;;;;;4170493;28;20045;-62
2023/07/19 07:55:17;;;;;;;4.95;2.88;;;21.30;99.90;;;;;;4170652;28;20037;-63
2023/07/19 07:57:18;;;;;;;6.80;3.28;;;21.30;99.90;;;;;;4170140;28;20036;-62
2023/07/19 07:59:18;;;;;;;6.50;2.92;;;21.40;99.90;;;;;;4169429;28;20472;-62
2023/07/19 08:01:19;;;;;;;7.95;3.67;;;21.50;99.90;;;;;;4166562;28;20995;-62
2023/07/19 08:03:20;;;;;;;7.65;3.28;;;21.60;99.90;;;;;;4166693;28;20033;-62
2023/07/19 08:05:20;;;;;;;6.13;2.63;;;21.70;99.90;;;;;;4166957;28;20457;-62
2023/07/19 08:07:21;;;;;;;5.22;2.63;;;21.80;99.90;;;;;;4171739;28;20044;-62
2023/07/19 08:09:22;;;;;;;4.07;2.70;;;21.90;99.90;;;;;;4166322;28;20449;-62
2023/07/19 08:11:24;;;;;;;6.55;2.80;;;21.90;99.90;;;;;;4161032;28;20394;-62
2023/07/19 08:13:25;;;;;;;;;;;22.00;99.90;;;;;;4170463;28;20033;-62
2023/07/19 08:15:26;;;;;;;6.78;2.90;;;22.00;99.90;;;;;;4167380;28;19963;-62
2023/07/19 08:17:26;;;;;;;6.63;2.80;;;22.10;99.90;;;;;;4152510;28;20091;-62
2023/07/19 08:19:27;;;;;;;6.43;2.78;;;22.10;99.90;;;;;;4152355;28;20072;-62
2023/07/19 08:21:28;;;;;;;3.88;2.47;;;22.20;99.90;;;;;;4144733;28;20508;-62
2023/07/19 08:23:29;;;;;;;5.72;2.70;;;22.20;99.90;;;;;;4149711;28;20042;-62
2023/07/19 08:25:30;;;;;;;6.53;2.50;;;22.20;99.90;;;;;;4160991;28;20525;-62
2023/07/19 08:27:30;;;;;;;3.50;2.30;;;22.20;99.90;;;;;;4165025;28;20037;-62
2023/07/19 08:29:31;;;;;;;5.75;2.53;;;22.30;99.90;;;;;;4165879;28;20029;-62
2023/07/19 08:31:31;;;;;;;3.13;2.03;;;22.40;99.90;;;;;;4168750;28;20493;-62
2023/07/19 08:33:32;;;;;;;4.30;2.22;;;22.40;99.90;;;;;;4166353;28;20082;-62
2023/07/19 08:35:33;;;;;;;5.20;2.95;;;22.50;99.90;;;;;;4150467;28;20065;-62
2023/07/19 08:37:33;;;;;;;7.13;2.72;;;22.50;99.90;;;;;;4163651;28;20029;-62
2023/07/19 08:39:34;;;;;;;4.85;2.80;;;22.60;99.90;;;;;;4170642;28;20036;-62
2023/07/19 08:41:35;;;;;;;6.90;2.28;;;22.60;99.90;;;;;;4169529;28;20033;-62
2023/07/19 08:43:36;;;;;;;4.57;2.70;;;22.60;99.90;;;;;;4166493;28;20061;-62
2023/07/19 08:45:37;;;;;;;8.27;2.58;;;22.60;99.90;;;;;;4167769;28;20037;-62
2023/07/19 08:47:39;;;;;;;3.78;2.10;;;22.70;99.90;;;;;;4160390;28;20068;-62
2023/07/19 08:49:41;;;;;;;3.90;2.13;;;22.70;99.90;;;;;;4159312;28;20030;-63
2023/07/19 08:51:43;;;;;;;4.55;2.33;;;22.70;99.90;;;;;;4151839;28;20377;-62
2023/07/19 08:53:44;;;;;;;7.32;3.10;;;22.70;99.90;;;;;;4166595;28;20132;-62
2023/07/19 08:55:45;;;;;;;8.02;3.22;;;22.80;99.90;;;;;;4154096;28;20061;-62
2023/07/19 08:57:46;;;;;;;4.45;2.40;;;22.80;99.90;;;;;;4158164;28;20033;-62
2023/07/19 08:59:46;;;;;;;3.17;2.00;;;22.80;99.90;;;;;;4156500;28;20037;-63
2023/07/19 09:01:47;;;;;;;3.45;2.20;;;22.90;99.90;;;;;;4152788;28;20052;-62
2023/07/19 09:03:47;;;;;;;5.88;2.90;;;22.90;99.90;;;;;;4150496;28;20061;-63
2023/07/19 09:05:48;;;;;;;5.93;2.88;;;23.00;99.90;;;;;;4144028;28;20038;-62
2023/07/19 09:07:49;;;;;;;9.00;2.70;;;23.20;99.90;;;;;;4152985;28;20034;-63
2023/07/19 09:09:54;;;;;;;7.10;3.20;;;23.30;99.90;;;;;;4152544;28;20460;-62
2023/07/19 09:11:54;;;;;;;6.47;2.85;;;23.40;99.90;;;;;;4148472;28;20029;-62
2023/07/19 09:13:58;;;;;;;5.43;2.95;;;23.50;99.90;;;;;;4150677;28;20037;-62
2023/07/19 09:16:02;;;;;;;5.00;2.60;;;23.60;99.90;;;;;;4145809;28;20032;-62
2023/07/19 09:18:05;;;;;;;8.00;3.22;;;23.60;99.90;;;;;;4179075;28;20082;-62
2023/07/19 09:20:06;;;;;;;4.80;2.60;;;23.60;98.90;;;;;;4147609;28;21515;-67
2023/07/19 09:22:07;;;;;;;5.85;3.03;;;23.70;99.40;;;;;;4164695;28;20571;-62
2023/07/19 09:24:10;;;;;;;6.35;3.03;;;23.80;99.80;;;;;;4172508;28;20036;-62
2023/07/19 09:26:10;;;;;;;;;;;23.80;99.60;;;;;;4168052;28;20033;-63
2023/07/19 09:28:11;;;;;;;4.22;2.30;;;23.90;99.50;;;;;;4170738;28;19916;-63
2023/07/19 09:30:13;;;;;;;6.78;3.00;;;24.00;99.50;;;;;;4166098;28;20602;-63
2023/07/19 09:32:15;;;;;;;5.05;2.38;;;24.00;98.60;;;;;;4169864;28;20040;-63
2023/07/19 09:34:16;;;;;;;7.53;2.15;;;24.10;98.40;;;;;;4171175;28;20042;-62
2023/07/19 09:36:18;;;;;;;6.63;2.38;;;24.10;98.00;;;;;;4149207;28;20144;-62
2023/07/19 09:38:19;;;;;;;6.40;2.37;;;24.10;98.10;;;;;;4149378;28;20033;-62
2023/07/19 09:40:21;;;;;;;7.17;2.17;;;24.20;98.10;;;;;;4160984;28;20468;-63
2023/07/19 09:42:24;;;;;;;8.88;2.03;;;24.30;99.30;;;;;;4168176;28;20268;-63
2023/07/19 09:44:25;;;;;;;7.60;2.85;;;24.30;99.20;;;;;;4174421;28;20037;-62
2023/07/19 09:46:25;;;;;;;5.38;1.80;;;24.30;98.20;;;;;;4175102;28;20039;-63
2023/07/19 09:48:28;;;;;;;6.43;2.20;;;24.40;97.80;;;;;;4161268;28;20065;-62
2023/07/19 09:50:29;;;;;;;;;;;24.40;97.30;;;;;;4170653;28;20458;-62
2023/07/19 09:52:35;;;;;;;7.15;2.17;;;24.40;97.70;;;;;;4166930;28;19917;-62
2023/07/19 09:54:36;;;;;;;4.13;2.38;;;24.50;97.70;;;;;;4170798;28;20415;-62
2023/07/19 09:56:38;;;;;;;4.68;2.08;;;24.50;97.80;;;;;;4168830;28;20037;-62
2023/07/19 09:58:40;;;;;;;6.00;2.40;;;24.50;98.00;;;;;;4165508;28;20029;-62
2023/07/19 10:00:41;;;;;;;5.60;2.90;;;24.60;98.90;;;;;;4164954;28;20473;-65
2023/07/19 10:02:42;;;;;;;4.32;1.98;;;24.50;97.00;;;;;;4162455;28;20358;-63
2023/07/19 10:04:43;;;;;;;5.78;2.25;;;24.50;98.30;;;;;;4147948;28;20091;-63
2023/07/19 10:06:45;;;;;;;4.25;2.13;;;24.60;97.40;;;;;;4169674;28;20032;-63
2023/07/19 10:08:46;;;;;;;5.00;1.80;;;24.60;96.90;;;;;;4165331;28;20369;-63
2023/07/19 10:10:46;;;;;;;3.17;2.10;;;24.60;97.30;;;;;;4161668;28;20053;-62
2023/07/19 10:12:48;;;;;;;5.35;1.92;;;24.60;97.70;;;;;;4165476;28;20037;-63
2023/07/19 10:15:01;;;;;;;5.93;2.00;;;24.70;98.10;;;;;;4166117;28;20034;-63
2023/07/19 10:17:05;;;;;;;5.53;2.22;;;24.70;97.30;;;;;;4165542;28;20260;-62
2023/07/19 10:19:14;;;;;;;5.75;2.05;;;24.70;97.90;;;;;;4163431;28;20495;-62
2023/07/19 10:21:19;;;;;;;2.90;1.70;;;24.70;97.40;;;;;;4164740;28;20500;-63
2023/07/19 10:23:19;;;;;;;7.00;2.28;;;24.90;98.90;;;;;;4166130;28;20033;-62
2023/07/19 10:25:29;;;;;;;6.68;2.58;;;24.90;97.70;;;;;;4162641;28;20036;-63
2023/07/19 10:27:36;;;;;;;4.10;2.13;;;24.90;97.20;;;;;;4168477;28;20083;-62
2023/07/19 10:29:44;;;;;;;6.28;2.65;;;24.90;97.50;;;;;;4166932;28;20040;-63